»·PEaware :: PHTIM KSNA-KRNM

PHTIM :: KSNA-KRNM

FLIGHT INFORMATION

Flight Status: Arrived
Operator: Unknown
More flights by this operator :: More flights under this callsign
Pilot: Tim P. (6337)
Aircraft: CESSNA 172 SKYHAWK
(C172)
More flights by this aircraft type
Origin: KSNA John Wayne-Orange Co
United States
Destination: KRNM Ramona
United States
More flights between these airports :: More routes between these airports
Route: +V23 OCN V208 JLI
File this flight plan on PilotEdge
Remarks: I-4 rating
Altitude:
(Current/Filed)
7,000ft
Speed:
(Current/Filed)
105kts
Departed: 27-Oct-18 09:42 AM
Arrived: 27-Oct-18 10:26 AM
Distance/Time
Traveled:
61nm/0:44
Distance/Time
To Go:
Arrived

Flight Plot

Page will automatically refresh every two minutes.


Map Options




Map Legend


Flown Route
Filed Route
Departure Airport
Arrival Airport
Navaid (VOR, NDB)
Fix

Horizontal Profiles

Position Reports

Time Latitude Longitude Heading Altitude Ground
Speed
27-Oct-18 09:15 33.670993 -117.867951 34 60ft 0kts
27-Oct-18 09:16 33.670993 -117.867951 34 60ft 0kts
27-Oct-18 09:17 33.670993 -117.867951 33 60ft 0kts
27-Oct-18 09:18 33.670993 -117.867951 33 60ft 0kts
27-Oct-18 09:19 33.670993 -117.867951 33 60ft 0kts
27-Oct-18 09:20 33.670993 -117.867951 33 60ft 0kts
27-Oct-18 09:21 33.670993 -117.867951 33 60ft 0kts
27-Oct-18 09:22 33.670993 -117.867951 33 60ft 0kts
27-Oct-18 09:23 33.670993 -117.867951 33 60ft 0kts
27-Oct-18 09:24 33.670993 -117.867951 33 60ft 0kts
27-Oct-18 09:25 33.670993 -117.867951 33 60ft 0kts
27-Oct-18 09:26 33.670993 -117.867951 33 60ft 0kts
27-Oct-18 09:27 33.670993 -117.867951 33 60ft 0kts
27-Oct-18 09:28 33.670993 -117.867951 33 60ft 0kts
27-Oct-18 09:29 33.670993 -117.867951 33 60ft 0kts
27-Oct-18 09:30 33.670993 -117.867951 33 60ft 0kts
27-Oct-18 09:31 33.670993 -117.867951 33 60ft 0kts
27-Oct-18 09:32 33.670993 -117.867951 33 60ft 0kts
27-Oct-18 09:33 33.670993 -117.867951 33 60ft 0kts
27-Oct-18 09:34 33.670993 -117.867951 33 60ft 0kts
27-Oct-18 09:35 33.670993 -117.867951 33 60ft 0kts
27-Oct-18 09:36 33.672383 -117.867929 29 60ft 12kts
27-Oct-18 09:37 33.673275 -117.867891 38 60ft 0kts
27-Oct-18 09:38 33.673275 -117.867891 38 60ft 0kts
27-Oct-18 09:39 33.673883 -117.867207 28 60ft 9kts
27-Oct-18 09:40 33.676768 -117.865371 27 60ft 14kts
27-Oct-18 09:41 33.679960 -117.863623 287 60ft 0kts
27-Oct-18 09:42 33.679960 -117.863623 287 60ft 0kts
27-Oct-18 09:43 33.680084 -117.863934 291 60ft 6kts
27-Oct-18 09:44 33.665890 -117.873234 204 442ft 86kts
27-Oct-18 09:45 33.643173 -117.879893 191 1277ft 86kts
27-Oct-18 09:46 33.619903 -117.886235 189 2064ft 87kts
27-Oct-18 09:47 33.596515 -117.892403 183 2792ft 87kts
27-Oct-18 09:48 33.572660 -117.898386 176 3460ft 90kts
27-Oct-18 09:49 33.554375 -117.882045 127 4113ft 83kts
27-Oct-18 09:50 33.538834 -117.861384 116 4693ft 83kts
27-Oct-18 09:51 33.523297 -117.840369 127 5249ft 86kts
27-Oct-18 09:52 33.506439 -117.819783 127 5818ft 86kts
27-Oct-18 09:53 33.490132 -117.798608 126 6343ft 88kts
27-Oct-18 09:54 33.474230 -117.776726 126 6854ft 86kts
27-Oct-18 09:55 33.458960 -117.751000 117 7052ft 104kts
27-Oct-18 09:56 33.446295 -117.724479 115 7064ft 102kts
27-Oct-18 09:57 33.432899 -117.694464 112 7119ft 102kts
27-Oct-18 09:58 33.415290 -117.665735 126 7054ft 113kts
27-Oct-18 09:59 33.393798 -117.639052 127 6966ft 111kts
27-Oct-18 10:00 33.374249 -117.610848 125 6882ft 108kts
27-Oct-18 10:01 33.354443 -117.583968 131 6857ft 105kts
27-Oct-18 10:02 33.333440 -117.559634 132 6886ft 105kts
27-Oct-18 10:03 33.315342 -117.532761 115 6913ft 103kts
27-Oct-18 10:04 33.298863 -117.504399 125 6901ft 109kts
27-Oct-18 10:05 33.279494 -117.478263 126 6980ft 104kts
27-Oct-18 10:06 33.260947 -117.451388 124 7006ft 104kts
27-Oct-18 10:07 33.241601 -117.425148 126 7038ft 103kts
27-Oct-18 10:08 33.221686 -117.399616 129 7067ft 104kts
27-Oct-18 10:09 33.201546 -117.374221 123 7091ft 104kts
27-Oct-18 10:10 33.182913 -117.347746 127 7108ft 105kts
27-Oct-18 10:11 33.164024 -117.321313 123 7137ft 105kts
27-Oct-18 10:12 33.143803 -117.293226 128 6774ft 117kts
27-Oct-18 10:13 33.122770 -117.264210 126 6331ft 116kts
27-Oct-18 10:14 33.101250 -117.235431 130 5897ft 116kts
27-Oct-18 10:15 33.079283 -117.207309 128 5476ft 116kts
27-Oct-18 10:16 33.057954 -117.178765 128 5032ft 117kts
27-Oct-18 10:17 33.035858 -117.149994 129 4498ft 118kts
27-Oct-18 10:18 33.013281 -117.121765 130 3969ft 117kts
27-Oct-18 10:19 33.000613 -117.090535 105 4059ft 96kts
27-Oct-18 10:20 32.996902 -117.059162 69 4132ft 102kts
27-Oct-18 10:21 33.005221 -117.026688 71 4076ft 102kts
27-Oct-18 10:22 33.013170 -116.993838 71 3977ft 104kts
27-Oct-18 10:23 33.015041 -116.959715 89 3677ft 102kts
27-Oct-18 10:24 33.012853 -116.925945 93 3247ft 104kts
27-Oct-18 10:25 33.015136 -116.895632 56 2897ft 88kts
27-Oct-18 10:26 33.035737 -116.887773 294 2216ft 84kts
27-Oct-18 10:27 33.038810 -116.913029 280 1396ft 52kts
27-Oct-18 10:28 33.040305 -116.919961 14 1396ft 0kts
27-Oct-18 10:29 33.040305 -116.919961 14 1396ft 0kts
27-Oct-18 10:30 33.040320 -116.918299 99 1396ft 12kts
27-Oct-18 10:31 33.039578 -116.913205 96 1396ft 14kts
27-Oct-18 10:32 33.040275 -116.910374 98 1396ft 4kts
27-Oct-18 10:33 33.040258 -116.910253 102 1396ft 0kts
27-Oct-18 10:39 33.040034 -116.910029 282 1395ft 0kts
27-Oct-18 10:40 33.040160 -116.910003 281 1396ft 0kts
27-Oct-18 10:41 33.040160 -116.910003 281 1396ft 0kts
27-Oct-18 10:42 33.040160 -116.910003 281 1396ft 0kts

Navigation Log

Ident Type
Flight plan parsing failed, navigation log unavailable